sensor_id;sensor_type;location;lat;lon;timestamp;P1;durP1;ratioP1;P2;durP2;ratioP2
75616;SDS011;64200;55.426;37.758;2024-03-17T00:00:16;17.40;;;5.20;;
75616;SDS011;64200;55.426;37.758;2024-03-17T00:05:18;16.85;;;5.35;;
75616;SDS011;64200;55.426;37.758;2024-03-17T00:10:19;8.02;;;4.15;;
75616;SDS011;64200;55.426;37.758;2024-03-17T00:15:19;5.88;;;2.90;;
75616;SDS011;64200;55.426;37.758;2024-03-17T00:20:20;11.30;;;5.47;;
75616;SDS011;64200;55.426;37.758;2024-03-17T00:25:21;19.80;;;6.07;;
75616;SDS011;64200;55.426;37.758;2024-03-17T00:30:22;8.35;;;4.78;;
75616;SDS011;64200;55.426;37.758;2024-03-17T00:35:22;18.77;;;5.60;;
75616;SDS011;64200;55.426;37.758;2024-03-17T00:40:23;11.93;;;4.22;;
75616;SDS011;64200;55.426;37.758;2024-03-17T00:45:23;16.30;;;5.73;;
75616;SDS011;64200;55.426;37.758;2024-03-17T00:50:24;13.40;;;6.20;;
75616;SDS011;64200;55.426;37.758;2024-03-17T00:55:24;13.43;;;4.20;;
75616;SDS011;64200;55.426;37.758;2024-03-17T01:00:25;14.63;;;5.63;;
75616;SDS011;64200;55.426;37.758;2024-03-17T01:05:26;14.00;;;5.25;;
75616;SDS011;64200;55.426;37.758;2024-03-17T01:10:26;14.23;;;4.38;;
75616;SDS011;64200;55.426;37.758;2024-03-17T01:15:27;13.88;;;6.80;;
75616;SDS011;64200;55.426;37.758;2024-03-17T01:20:27;15.73;;;5.30;;
75616;SDS011;64200;55.426;37.758;2024-03-17T01:25:28;15.90;;;4.70;;
75616;SDS011;64200;55.426;37.758;2024-03-17T01:30:30;12.18;;;5.57;;
75616;SDS011;64200;55.426;37.758;2024-03-17T01:35:32;13.38;;;5.53;;
75616;SDS011;64200;55.426;37.758;2024-03-17T01:40:33;16.40;;;6.50;;
75616;SDS011;64200;55.426;37.758;2024-03-17T01:45:34;15.38;;;6.18;;
75616;SDS011;64200;55.426;37.758;2024-03-17T01:50:36;7.05;;;2.95;;
75616;SDS011;64200;55.426;37.758;2024-03-17T01:55:38;14.98;;;6.18;;
75616;SDS011;64200;55.426;37.758;2024-03-17T02:00:40;12.05;;;4.85;;
75616;SDS011;64200;55.426;37.758;2024-03-17T02:05:40;10.23;;;4.55;;
75616;SDS011;64200;55.426;37.758;2024-03-17T02:10:41;21.60;;;7.63;;
75616;SDS011;64200;55.426;37.758;2024-03-17T02:15:41;6.17;;;3.03;;
75616;SDS011;64200;55.426;37.758;2024-03-17T02:20:42;11.63;;;4.93;;
75616;SDS011;64200;55.426;37.758;2024-03-17T02:25:59;20.42;;;5.85;;
75616;SDS011;64200;55.426;37.758;2024-03-17T02:31:00;17.43;;;5.23;;
75616;SDS011;64200;55.426;37.758;2024-03-17T02:36:00;11.88;;;4.75;;
75616;SDS011;64200;55.426;37.758;2024-03-17T02:41:01;15.60;;;6.32;;
75616;SDS011;64200;55.426;37.758;2024-03-17T02:46:02;11.05;;;4.78;;
75616;SDS011;64200;55.426;37.758;2024-03-17T02:51:05;19.05;;;7.10;;
75616;SDS011;64200;55.426;37.758;2024-03-17T02:56:06;30.10;;;7.13;;
75616;SDS011;64200;55.426;37.758;2024-03-17T03:01:06;11.82;;;4.85;;
75616;SDS011;64200;55.426;37.758;2024-03-17T03:06:07;11.82;;;6.70;;
75616;SDS011;64200;55.426;37.758;2024-03-17T03:11:11;7.90;;;3.05;;
75616;SDS011;64200;55.426;37.758;2024-03-17T03:16:13;17.42;;;5.80;;
75616;SDS011;64200;55.426;37.758;2024-03-17T03:21:14;16.80;;;3.78;;
75616;SDS011;64200;55.426;37.758;2024-03-17T03:26:15;13.70;;;6.68;;
75616;SDS011;64200;55.426;37.758;2024-03-17T03:31:16;7.27;;;4.37;;
75616;SDS011;64200;55.426;37.758;2024-03-17T03:36:17;8.15;;;4.55;;
75616;SDS011;64200;55.426;37.758;2024-03-17T03:41:18;19.50;;;4.93;;
75616;SDS011;64200;55.426;37.758;2024-03-17T03:46:19;16.67;;;6.55;;
75616;SDS011;64200;55.426;37.758;2024-03-17T03:51:20;25.48;;;7.13;;
75616;SDS011;64200;55.426;37.758;2024-03-17T03:56:21;23.23;;;5.07;;
75616;SDS011;64200;55.426;37.758;2024-03-17T04:01:21;15.07;;;5.77;;
75616;SDS011;64200;55.426;37.758;2024-03-17T04:06:22;6.03;;;3.67;;
75616;SDS011;64200;55.426;37.758;2024-03-17T04:11:23;19.45;;;6.43;;
75616;SDS011;64200;55.426;37.758;2024-03-17T04:16:23;11.97;;;6.00;;
75616;SDS011;64200;55.426;37.758;2024-03-17T04:21:24;20.60;;;7.73;;
75616;SDS011;64200;55.426;37.758;2024-03-17T04:26:24;16.45;;;7.28;;
75616;SDS011;64200;55.426;37.758;2024-03-17T04:31:25;16.73;;;6.85;;
75616;SDS011;64200;55.426;37.758;2024-03-17T04:36:26;20.17;;;7.47;;
75616;SDS011;64200;55.426;37.758;2024-03-17T04:41:26;23.77;;;7.87;;
75616;SDS011;64200;55.426;37.758;2024-03-17T04:46:27;18.17;;;7.28;;
75616;SDS011;64200;55.426;37.758;2024-03-17T04:51:28;23.02;;;7.63;;
75616;SDS011;64200;55.426;37.758;2024-03-17T04:56:29;8.60;;;3.85;;
75616;SDS011;64200;55.426;37.758;2024-03-17T05:01:30;20.60;;;6.88;;
75616;SDS011;64200;55.426;37.758;2024-03-17T05:06:36;23.50;;;7.25;;
75616;SDS011;64200;55.426;37.758;2024-03-17T05:11:37;11.02;;;4.97;;
75616;SDS011;64200;55.426;37.758;2024-03-17T05:16:37;11.00;;;4.82;;
75616;SDS011;64200;55.426;37.758;2024-03-17T05:21:38;22.08;;;8.30;;
75616;SDS011;64200;55.426;37.758;2024-03-17T05:26:39;23.67;;;7.57;;
75616;SDS011;64200;55.426;37.758;2024-03-17T05:31:40;15.68;;;6.75;;
75616;SDS011;64200;55.426;37.758;2024-03-17T05:36:40;16.55;;;6.40;;
75616;SDS011;64200;55.426;37.758;2024-03-17T05:41:41;20.38;;;5.25;;
75616;SDS011;64200;55.426;37.758;2024-03-17T05:46:43;20.88;;;8.40;;
75616;SDS011;64200;55.426;37.758;2024-03-17T05:51:44;27.55;;;8.35;;
75616;SDS011;64200;55.426;37.758;2024-03-17T05:56:44;21.10;;;8.00;;
75616;SDS011;64200;55.426;37.758;2024-03-17T06:01:45;24.97;;;7.40;;
75616;SDS011;64200;55.426;37.758;2024-03-17T06:06:45;20.83;;;7.43;;
75616;SDS011;64200;55.426;37.758;2024-03-17T06:11:46;16.00;;;7.07;;
75616;SDS011;64200;55.426;37.758;2024-03-17T06:16:47;16.67;;;7.28;;
75616;SDS011;64200;55.426;37.758;2024-03-17T06:21:47;36.08;;;8.45;;
75616;SDS011;64200;55.426;37.758;2024-03-17T06:26:50;24.57;;;7.53;;
75616;SDS011;64200;55.426;37.758;2024-03-17T06:31:51;28.58;;;7.75;;
75616;SDS011;64200;55.426;37.758;2024-03-17T06:36:51;20.13;;;6.50;;
75616;SDS011;64200;55.426;37.758;2024-03-17T06:41:52;24.48;;;8.45;;
75616;SDS011;64200;55.426;37.758;2024-03-17T06:46:52;26.77;;;8.43;;
75616;SDS011;64200;55.426;37.758;2024-03-17T06:51:53;25.15;;;8.05;;
75616;SDS011;64200;55.426;37.758;2024-03-17T06:56:53;23.10;;;8.50;;
75616;SDS011;64200;55.426;37.758;2024-03-17T07:01:54;28.60;;;8.35;;
75616;SDS011;64200;55.426;37.758;2024-03-17T07:06:55;29.85;;;7.85;;
75616;SDS011;64200;55.426;37.758;2024-03-17T07:11:55;33.17;;;7.50;;
75616;SDS011;64200;55.426;37.758;2024-03-17T07:16:56;22.17;;;8.32;;
75616;SDS011;64200;55.426;37.758;2024-03-17T07:21:57;18.63;;;6.90;;
75616;SDS011;64200;55.426;37.758;2024-03-17T07:26:57;32.38;;;8.52;;
75616;SDS011;64200;55.426;37.758;2024-03-17T07:31:58;24.63;;;6.83;;
75616;SDS011;64200;55.426;37.758;2024-03-17T07:36:58;26.92;;;7.90;;
75616;SDS011;64200;55.426;37.758;2024-03-17T07:42:03;33.17;;;8.05;;
75616;SDS011;64200;55.426;37.758;2024-03-17T07:47:04;26.85;;;8.07;;
75616;SDS011;64200;55.426;37.758;2024-03-17T07:52:05;29.98;;;7.97;;
75616;SDS011;64200;55.426;37.758;2024-03-17T07:57:06;23.77;;;6.20;;
75616;SDS011;64200;55.426;37.758;2024-03-17T08:02:08;32.88;;;7.50;;
75616;SDS011;64200;55.426;37.758;2024-03-17T08:07:09;41.03;;;8.07;;
75616;SDS011;64200;55.426;37.758;2024-03-17T08:12:10;49.13;;;10.20;;
75616;SDS011;64200;55.426;37.758;2024-03-17T08:17:10;34.22;;;6.97;;
75616;SDS011;64200;55.426;37.758;2024-03-17T08:22:11;30.73;;;6.83;;
75616;SDS011;64200;55.426;37.758;2024-03-17T08:27:11;27.50;;;7.32;;
75616;SDS011;64200;55.426;37.758;2024-03-17T08:32:12;28.20;;;6.95;;
75616;SDS011;64200;55.426;37.758;2024-03-17T08:37:14;28.17;;;8.48;;
75616;SDS011;64200;55.426;37.758;2024-03-17T08:42:15;42.30;;;8.45;;
75616;SDS011;64200;55.426;37.758;2024-03-17T08:47:15;29.58;;;7.32;;
75616;SDS011;64200;55.426;37.758;2024-03-17T08:52:16;39.42;;;7.05;;
75616;SDS011;64200;55.426;37.758;2024-03-17T08:57:17;28.60;;;6.50;;
75616;SDS011;64200;55.426;37.758;2024-03-17T09:02:17;36.33;;;7.23;;
75616;SDS011;64200;55.426;37.758;2024-03-17T09:07:18;42.60;;;7.78;;
75616;SDS011;64200;55.426;37.758;2024-03-17T09:12:19;38.88;;;6.22;;
75616;SDS011;64200;55.426;37.758;2024-03-17T09:17:22;47.97;;;8.10;;
75616;SDS011;64200;55.426;37.758;2024-03-17T09:22:23;29.02;;;7.07;;
75616;SDS011;64200;55.426;37.758;2024-03-17T09:27:23;42.08;;;7.45;;
75616;SDS011;64200;55.426;37.758;2024-03-17T09:32:25;41.08;;;8.65;;
75616;SDS011;64200;55.426;37.758;2024-03-17T09:37:26;38.72;;;8.10;;
75616;SDS011;64200;55.426;37.758;2024-03-17T09:42:41;24.08;;;6.00;;
75616;SDS011;64200;55.426;37.758;2024-03-17T09:47:45;26.90;;;6.47;;
75616;SDS011;64200;55.426;37.758;2024-03-17T09:52:45;34.65;;;6.05;;
75616;SDS011;64200;55.426;37.758;2024-03-17T09:57:46;25.60;;;5.90;;
75616;SDS011;64200;55.426;37.758;2024-03-17T10:02:47;29.17;;;5.72;;
75616;SDS011;64200;55.426;37.758;2024-03-17T10:07:48;24.88;;;5.82;;
75616;SDS011;64200;55.426;37.758;2024-03-17T10:12:50;28.30;;;6.40;;
75616;SDS011;64200;55.426;37.758;2024-03-17T10:17:51;18.60;;;6.35;;
75616;SDS011;64200;55.426;37.758;2024-03-17T10:23:05;24.42;;;6.10;;
75616;SDS011;64200;55.426;37.758;2024-03-17T10:28:11;21.20;;;5.22;;
75616;SDS011;64200;55.426;37.758;2024-03-17T10:33:22;21.65;;;5.95;;
75616;SDS011;64200;55.426;37.758;2024-03-17T10:38:27;20.45;;;4.80;;
75616;SDS011;64200;55.426;37.758;2024-03-17T10:43:28;21.60;;;5.88;;
75616;SDS011;64200;55.426;37.758;2024-03-17T10:48:30;18.95;;;4.70;;
75616;SDS011;64200;55.426;37.758;2024-03-17T10:53:34;22.58;;;5.28;;
75616;SDS011;64200;55.426;37.758;2024-03-17T10:58:36;24.95;;;4.90;;
75616;SDS011;64200;55.426;37.758;2024-03-17T11:03:46;20.77;;;4.15;;
75616;SDS011;64200;55.426;37.758;2024-03-17T11:08:49;19.30;;;5.55;;
75616;SDS011;64200;55.426;37.758;2024-03-17T11:13:50;14.60;;;4.30;;
75616;SDS011;64200;55.426;37.758;2024-03-17T11:18:51;19.15;;;4.28;;
75616;SDS011;64200;55.426;37.758;2024-03-17T11:23:55;18.65;;;4.28;;
75616;SDS011;64200;55.426;37.758;2024-03-17T11:29:01;15.13;;;3.75;;
75616;SDS011;64200;55.426;37.758;2024-03-17T11:34:25;15.07;;;4.07;;
75616;SDS011;64200;55.426;37.758;2024-03-17T11:39:47;12.52;;;4.00;;
75616;SDS011;64200;55.426;37.758;2024-03-17T11:45:09;11.50;;;4.50;;
75616;SDS011;64200;55.426;37.758;2024-03-17T11:50:15;19.98;;;4.20;;
75616;SDS011;64200;55.426;37.758;2024-03-17T11:55:17;14.02;;;3.75;;
75616;SDS011;64200;55.426;37.758;2024-03-17T12:00:19;18.80;;;4.18;;
75616;SDS011;64200;55.426;37.758;2024-03-17T12:05:23;22.13;;;4.57;;
75616;SDS011;64200;55.426;37.758;2024-03-17T12:10:25;12.00;;;3.17;;
75616;SDS011;64200;55.426;37.758;2024-03-17T12:15:26;22.23;;;5.57;;
75616;SDS011;64200;55.426;37.758;2024-03-17T12:20:26;11.77;;;3.00;;
75616;SDS011;64200;55.426;37.758;2024-03-17T12:25:28;22.40;;;4.90;;
75616;SDS011;64200;55.426;37.758;2024-03-17T12:30:29;14.07;;;4.88;;
75616;SDS011;64200;55.426;37.758;2024-03-17T12:35:30;11.88;;;4.03;;
75616;SDS011;64200;55.426;37.758;2024-03-17T12:40:31;19.90;;;5.28;;
75616;SDS011;64200;55.426;37.758;2024-03-17T12:45:34;13.70;;;4.18;;
75616;SDS011;64200;55.426;37.758;2024-03-17T12:50:34;18.07;;;4.63;;
75616;SDS011;64200;55.426;37.758;2024-03-17T12:55:35;25.23;;;5.03;;
75616;SDS011;64200;55.426;37.758;2024-03-17T13:01:04;18.90;;;4.05;;
75616;SDS011;64200;55.426;37.758;2024-03-17T13:06:06;13.90;;;3.72;;
75616;SDS011;64200;55.426;37.758;2024-03-17T13:11:10;28.08;;;5.28;;
75616;SDS011;64200;55.426;37.758;2024-03-17T13:16:11;25.02;;;6.25;;
75616;SDS011;64200;55.426;37.758;2024-03-17T13:21:16;28.98;;;5.00;;
75616;SDS011;64200;55.426;37.758;2024-03-17T13:26:16;26.90;;;6.70;;
75616;SDS011;64200;55.426;37.758;2024-03-17T13:31:17;20.35;;;4.82;;
75616;SDS011;64200;55.426;37.758;2024-03-17T13:36:18;28.70;;;5.20;;
75616;SDS011;64200;55.426;37.758;2024-03-17T13:41:19;20.75;;;4.68;;
75616;SDS011;64200;55.426;37.758;2024-03-17T13:46:19;22.25;;;5.10;;
75616;SDS011;64200;55.426;37.758;2024-03-17T13:51:20;29.65;;;4.95;;
75616;SDS011;64200;55.426;37.758;2024-03-17T13:56:20;23.23;;;4.30;;
75616;SDS011;64200;55.426;37.758;2024-03-17T14:01:21;27.35;;;4.75;;
75616;SDS011;64200;55.426;37.758;2024-03-17T14:06:22;12.10;;;2.83;;
75616;SDS011;64200;55.426;37.758;2024-03-17T14:11:23;20.38;;;5.35;;
75616;SDS011;64200;55.426;37.758;2024-03-17T14:16:23;25.23;;;5.10;;
75616;SDS011;64200;55.426;37.758;2024-03-17T14:21:24;27.35;;;4.53;;
75616;SDS011;64200;55.426;37.758;2024-03-17T14:26:24;23.05;;;3.97;;
75616;SDS011;64200;55.426;37.758;2024-03-17T14:31:25;17.58;;;4.28;;
75616;SDS011;64200;55.426;37.758;2024-03-17T14:36:26;21.92;;;4.70;;
75616;SDS011;64200;55.426;37.758;2024-03-17T14:41:31;16.90;;;4.35;;
75616;SDS011;64200;55.426;37.758;2024-03-17T14:46:31;22.33;;;4.15;;
75616;SDS011;64200;55.426;37.758;2024-03-17T14:51:32;8.25;;;1.92;;
75616;SDS011;64200;55.426;37.758;2024-03-17T14:56:33;21.40;;;4.72;;
75616;SDS011;64200;55.426;37.758;2024-03-17T15:01:33;13.63;;;3.00;;
75616;SDS011;64200;55.426;37.758;2024-03-17T15:06:34;22.00;;;3.47;;
75616;SDS011;64200;55.426;37.758;2024-03-17T15:11:34;20.33;;;4.05;;
75616;SDS011;64200;55.426;37.758;2024-03-17T15:16:35;27.02;;;4.75;;
75616;SDS011;64200;55.426;37.758;2024-03-17T15:21:36;29.77;;;6.00;;
75616;SDS011;64200;55.426;37.758;2024-03-17T15:26:37;25.38;;;6.25;;
75616;SDS011;64200;55.426;37.758;2024-03-17T15:31:38;32.58;;;6.28;;
75616;SDS011;64200;55.426;37.758;2024-03-17T15:36:39;24.30;;;4.43;;
75616;SDS011;64200;55.426;37.758;2024-03-17T15:41:39;25.17;;;4.45;;
75616;SDS011;64200;55.426;37.758;2024-03-17T15:46:40;30.53;;;5.23;;
75616;SDS011;64200;55.426;37.758;2024-03-17T15:51:41;18.38;;;3.13;;
75616;SDS011;64200;55.426;37.758;2024-03-17T15:56:42;25.58;;;5.20;;
75616;SDS011;64200;55.426;37.758;2024-03-17T16:01:42;20.05;;;5.78;;
75616;SDS011;64200;55.426;37.758;2024-03-17T16:06:43;43.78;;;6.35;;
75616;SDS011;64200;55.426;37.758;2024-03-17T16:11:44;22.92;;;5.40;;
75616;SDS011;64200;55.426;37.758;2024-03-17T16:16:45;14.25;;;3.63;;
75616;SDS011;64200;55.426;37.758;2024-03-17T16:21:46;30.08;;;7.13;;
75616;SDS011;64200;55.426;37.758;2024-03-17T16:26:47;28.87;;;5.80;;
75616;SDS011;64200;55.426;37.758;2024-03-17T16:31:47;20.90;;;5.53;;
75616;SDS011;64200;55.426;37.758;2024-03-17T16:36:50;18.25;;;4.65;;
75616;SDS011;64200;55.426;37.758;2024-03-17T16:41:51;30.48;;;7.15;;
75616;SDS011;64200;55.426;37.758;2024-03-17T16:47:06;16.73;;;4.95;;
75616;SDS011;64200;55.426;37.758;2024-03-17T16:52:19;15.38;;;5.53;;
75616;SDS011;64200;55.426;37.758;2024-03-17T16:57:19;32.03;;;6.60;;
75616;SDS011;64200;55.426;37.758;2024-03-17T17:02:20;12.15;;;3.65;;
75616;SDS011;64200;55.426;37.758;2024-03-17T17:07:22;28.70;;;6.95;;
75616;SDS011;64200;55.426;37.758;2024-03-17T17:12:23;33.58;;;7.97;;
75616;SDS011;64200;55.426;37.758;2024-03-17T17:17:23;10.55;;;5.28;;
75616;SDS011;64200;55.426;37.758;2024-03-17T17:22:24;15.13;;;5.00;;
75616;SDS011;64200;55.426;37.758;2024-03-17T17:27:25;17.63;;;5.63;;
75616;SDS011;64200;55.426;37.758;2024-03-17T17:32:26;25.10;;;6.38;;
75616;SDS011;64200;55.426;37.758;2024-03-17T17:37:26;19.52;;;7.32;;
75616;SDS011;64200;55.426;37.758;2024-03-17T17:42:27;16.80;;;6.53;;
75616;SDS011;64200;55.426;37.758;2024-03-17T17:47:27;5.45;;;3.97;;
75616;SDS011;64200;55.426;37.758;2024-03-17T17:52:28;23.77;;;7.65;;
75616;SDS011;64200;55.426;37.758;2024-03-17T17:57:29;28.20;;;8.48;;
75616;SDS011;64200;55.426;37.758;2024-03-17T18:02:30;24.77;;;7.55;;
75616;SDS011;64200;55.426;37.758;2024-03-17T18:07:31;27.58;;;8.05;;
75616;SDS011;64200;55.426;37.758;2024-03-17T18:12:31;25.75;;;8.10;;
75616;SDS011;64200;55.426;37.758;2024-03-17T18:17:32;24.00;;;7.75;;
75616;SDS011;64200;55.426;37.758;2024-03-17T18:22:33;21.33;;;7.57;;
75616;SDS011;64200;55.426;37.758;2024-03-17T18:27:33;18.23;;;5.78;;
75616;SDS011;64200;55.426;37.758;2024-03-17T18:32:34;22.70;;;9.25;;
75616;SDS011;64200;55.426;37.758;2024-03-17T18:37:34;23.57;;;6.67;;
75616;SDS011;64200;55.426;37.758;2024-03-17T18:42:36;20.85;;;8.07;;
75616;SDS011;64200;55.426;37.758;2024-03-17T18:47:38;28.85;;;8.70;;
75616;SDS011;64200;55.426;37.758;2024-03-17T18:52:38;13.32;;;4.13;;
75616;SDS011;64200;55.426;37.758;2024-03-17T18:57:39;34.03;;;8.82;;
75616;SDS011;64200;55.426;37.758;2024-03-17T19:02:43;27.25;;;9.30;;
75616;SDS011;64200;55.426;37.758;2024-03-17T19:07:46;28.50;;;9.60;;
75616;SDS011;64200;55.426;37.758;2024-03-17T19:12:49;35.58;;;10.05;;
75616;SDS011;64200;55.426;37.758;2024-03-17T19:17:52;22.52;;;7.85;;
75616;SDS011;64200;55.426;37.758;2024-03-17T19:22:52;33.88;;;9.57;;
75616;SDS011;64200;55.426;37.758;2024-03-17T19:27:54;22.65;;;8.35;;
75616;SDS011;64200;55.426;37.758;2024-03-17T19:32:54;28.20;;;9.30;;
75616;SDS011;64200;55.426;37.758;2024-03-17T19:37:55;22.90;;;7.40;;
75616;SDS011;64200;55.426;37.758;2024-03-17T19:42:55;25.63;;;9.68;;
75616;SDS011;64200;55.426;37.758;2024-03-17T19:47:56;26.77;;;9.80;;
75616;SDS011;64200;55.426;37.758;2024-03-17T19:52:56;27.77;;;9.90;;
75616;SDS011;64200;55.426;37.758;2024-03-17T19:57:57;26.83;;;9.03;;
75616;SDS011;64200;55.426;37.758;2024-03-17T20:02:58;31.83;;;9.90;;
75616;SDS011;64200;55.426;37.758;2024-03-17T20:07:58;27.13;;;8.33;;
75616;SDS011;64200;55.426;37.758;2024-03-17T20:12:59;27.93;;;9.50;;
75616;SDS011;64200;55.426;37.758;2024-03-17T20:18:00;42.60;;;10.25;;
75616;SDS011;64200;55.426;37.758;2024-03-17T20:23:02;30.50;;;9.40;;
75616;SDS011;64200;55.426;37.758;2024-03-17T20:28:03;20.58;;;7.13;;
75616;SDS011;64200;55.426;37.758;2024-03-17T20:33:04;29.85;;;9.07;;
75616;SDS011;64200;55.426;37.758;2024-03-17T20:38:05;26.70;;;9.07;;
75616;SDS011;64200;55.426;37.758;2024-03-17T20:43:07;32.80;;;10.10;;
75616;SDS011;64200;55.426;37.758;2024-03-17T20:48:08;30.15;;;11.43;;
75616;SDS011;64200;55.426;37.758;2024-03-17T20:53:08;29.35;;;10.45;;
75616;SDS011;64200;55.426;37.758;2024-03-17T20:58:09;37.17;;;11.48;;
75616;SDS011;64200;55.426;37.758;2024-03-17T21:03:10;29.92;;;10.40;;
75616;SDS011;64200;55.426;37.758;2024-03-17T21:08:11;32.83;;;12.07;;
75616;SDS011;64200;55.426;37.758;2024-03-17T21:13:16;30.05;;;9.90;;
75616;SDS011;64200;55.426;37.758;2024-03-17T21:18:16;33.80;;;11.32;;
75616;SDS011;64200;55.426;37.758;2024-03-17T21:23:19;31.02;;;9.85;;
75616;SDS011;64200;55.426;37.758;2024-03-17T21:28:19;27.60;;;10.47;;
75616;SDS011;64200;55.426;37.758;2024-03-17T21:33:20;35.90;;;10.35;;
75616;SDS011;64200;55.426;37.758;2024-03-17T21:38:20;28.88;;;9.73;;
75616;SDS011;64200;55.426;37.758;2024-03-17T21:43:22;35.35;;;11.50;;
75616;SDS011;64200;55.426;37.758;2024-03-17T21:48:22;32.97;;;11.05;;
75616;SDS011;64200;55.426;37.758;2024-03-17T21:53:23;32.90;;;10.53;;
75616;SDS011;64200;55.426;37.758;2024-03-17T21:58:23;36.27;;;11.10;;
75616;SDS011;64200;55.426;37.758;2024-03-17T22:03:24;33.60;;;10.77;;
75616;SDS011;64200;55.426;37.758;2024-03-17T22:08:25;30.58;;;10.85;;
75616;SDS011;64200;55.426;37.758;2024-03-17T22:13:26;39.15;;;11.02;;
75616;SDS011;64200;55.426;37.758;2024-03-17T22:18:28;43.85;;;10.77;;
75616;SDS011;64200;55.426;37.758;2024-03-17T22:23:29;32.20;;;11.85;;
75616;SDS011;64200;55.426;37.758;2024-03-17T22:28:30;35.35;;;11.10;;
75616;SDS011;64200;55.426;37.758;2024-03-17T22:33:34;32.25;;;13.43;;
75616;SDS011;64200;55.426;37.758;2024-03-17T22:38:36;42.67;;;13.05;;
75616;SDS011;64200;55.426;37.758;2024-03-17T22:43:41;36.25;;;11.32;;
75616;SDS011;64200;55.426;37.758;2024-03-17T22:48:42;32.80;;;10.60;;
75616;SDS011;64200;55.426;37.758;2024-03-17T22:53:44;31.13;;;11.68;;
75616;SDS011;64200;55.426;37.758;2024-03-17T22:58:45;32.85;;;11.90;;
75616;SDS011;64200;55.426;37.758;2024-03-17T23:03:46;38.90;;;11.43;;
75616;SDS011;64200;55.426;37.758;2024-03-17T23:08:46;44.88;;;12.15;;
75616;SDS011;64200;55.426;37.758;2024-03-17T23:13:48;36.47;;;13.38;;
75616;SDS011;64200;55.426;37.758;2024-03-17T23:18:49;33.28;;;12.45;;
75616;SDS011;64200;55.426;37.758;2024-03-17T23:23:49;45.63;;;12.75;;
75616;SDS011;64200;55.426;37.758;2024-03-17T23:28:50;40.88;;;13.75;;
75616;SDS011;64200;55.426;37.758;2024-03-17T23:33:50;43.72;;;13.90;;
75616;SDS011;64200;55.426;37.758;2024-03-17T23:38:51;42.00;;;12.67;;
75616;SDS011;64200;55.426;37.758;2024-03-17T23:43:53;37.75;;;13.27;;
75616;SDS011;64200;55.426;37.758;2024-03-17T23:48:53;50.50;;;13.02;;
75616;SDS011;64200;55.426;37.758;2024-03-17T23:53:54;45.17;;;12.07;;
75616;SDS011;64200;55.426;37.758;2024-03-17T23:58:55;46.30;;;13.70;;
